Time;durP1;ratioP1;P1;durP2;ratioP2;P2;SDS_P1;SDS_P2;PMS_P1;PMS_P2;Temp;Humidity;BMP_temperature;BMP_pressure;BME280_temperature;BME280_humidity;BME280_pressure;Samples;Min_cycle;Max_cycle;Signal;HPM_P1;HPM_P2
2022/08/04 00:00:12;;;;;;;8.63;3.97;;;22.30;99.90;;;;;;5030348;28;20038;-62
2022/08/04 00:03:15;;;;;;;12.07;4.13;;;22.30;99.90;;;;;;5031623;28;20127;-61
2022/08/04 00:06:03;;;;;;;11.60;4.22;;;22.20;99.90;;;;;;5031873;28;20037;-62
2022/08/04 00:08:43;;;;;;;8.43;3.72;;;22.20;99.90;;;;;;5032462;28;20055;-62
2022/08/04 00:11:12;;;;;;;10.80;4.72;;;22.20;99.90;;;;;;5035742;28;20030;-62
2022/08/04 00:13:41;;;;;;;11.50;4.38;;;22.10;99.90;;;;;;5030880;28;20076;-62
2022/08/04 00:16:09;;;;;;;10.95;4.63;;;22.10;99.90;;;;;;5025090;28;20119;-62
2022/08/04 00:18:48;;;;;;;12.18;4.15;;;22.10;99.90;;;;;;5034237;28;20044;-63
2022/08/04 00:21:17;;;;;;;8.60;4.15;;;22.10;99.90;;;;;;5035602;28;20042;-62
2022/08/04 00:23:44;;;;;;;9.90;4.60;;;22.10;99.90;;;;;;5037663;28;20037;-62
2022/08/04 00:26:10;;;;;;;10.50;4.55;;;22.10;99.90;;;;;;5035336;28;20037;-62
2022/08/04 00:28:37;;;;;;;8.57;4.57;;;22.00;99.90;;;;;;5034069;28;20044;-63
2022/08/04 00:31:04;;;;;;;10.85;4.03;;;22.00;99.90;;;;;;5035601;28;20122;-63
2022/08/04 00:33:32;;;;;;;10.90;4.63;;;22.00;99.90;;;;;;5034996;28;20095;-62
2022/08/04 00:35:59;;;;;;;9.23;4.50;;;22.00;99.90;;;;;;5035280;28;20534;-62
2022/08/04 00:38:26;;;;;;;11.73;4.57;;;21.90;99.90;;;;;;5028550;28;20041;-62
2022/08/04 00:40:57;;;;;;;9.90;4.32;;;21.90;99.90;;;;;;5035328;28;20478;-64
2022/08/04 00:43:31;;;;;;;11.75;4.28;;;21.90;99.90;;;;;;5035567;28;20038;-63
2022/08/04 00:46:27;;;;;;;9.82;4.68;;;21.90;99.90;;;;;;5035549;28;20044;-61
2022/08/04 00:49:11;;;;;;;9.00;4.38;;;21.80;99.90;;;;;;5033414;28;20532;-62
2022/08/04 00:51:48;;;;;;;12.57;5.05;;;21.80;99.90;;;;;;5035222;28;20107;-61
2022/08/04 00:54:16;;;;;;;11.02;4.97;;;21.80;99.90;;;;;;5035340;28;20075;-64
2022/08/04 00:57:05;;;;;;;11.02;5.13;;;21.80;99.90;;;;;;5035206;28;20136;-62
2022/08/04 00:59:41;;;;;;;11.80;5.38;;;21.80;99.90;;;;;;5033710;28;20091;-62
2022/08/04 01:02:27;;;;;;;8.35;4.43;;;21.80;99.90;;;;;;5034628;28;20092;-62
2022/08/04 01:05:06;;;;;;;12.50;4.93;;;21.80;99.90;;;;;;5035150;28;20038;-63
2022/08/04 01:07:53;;;;;;;11.38;5.43;;;21.80;99.90;;;;;;5017084;28;20044;-62
2022/08/04 01:10:37;;;;;;;12.40;4.25;;;21.70;99.90;;;;;;5025968;28;20465;-62
2022/08/04 01:13:24;;;;;;;8.48;4.40;;;21.80;99.90;;;;;;5034827;28;20045;-62
2022/08/04 01:15:59;;;;;;;11.73;5.25;;;21.80;99.90;;;;;;5034074;28;20132;-62
2022/08/04 01:18:30;;;;;;;11.27;4.95;;;21.80;99.90;;;;;;5015771;28;20041;-62
2022/08/04 01:21:16;;;;;;;8.65;4.35;;;21.90;99.90;;;;;;5034810;28;20046;-62
2022/08/04 01:23:54;;;;;;;11.07;4.57;;;21.90;99.90;;;;;;5039659;28;20380;-62
2022/08/04 01:26:40;;;;;;;10.70;4.47;;;21.90;99.90;;;;;;5054820;28;20051;-62
2022/08/04 01:29:10;;;;;;;9.57;4.20;;;21.90;99.90;;;;;;5041336;28;20076;-62
2022/08/04 01:31:59;;;;;;;11.80;4.78;;;22.00;99.90;;;;;;5034671;28;20041;-62
2022/08/04 01:34:29;;;;;;;8.77;5.32;;;22.00;99.90;;;;;;5043698;28;20040;-62
2022/08/04 01:37:03;;;;;;;10.60;5.03;;;22.00;99.90;;;;;;5054078;28;20095;-62
2022/08/04 01:39:40;;;;;;;9.68;4.88;;;22.00;99.90;;;;;;5032958;28;20057;-62
2022/08/04 01:42:06;;;;;;;9.80;5.07;;;22.10;99.90;;;;;;5036732;28;20041;-62
2022/08/04 01:44:34;;;;;;;12.10;5.25;;;22.10;99.90;;;;;;5053969;28;20036;-62
2022/08/04 01:47:01;;;;;;;10.23;6.13;;;22.10;99.90;;;;;;5039695;28;20037;-63
2022/08/04 01:49:31;;;;;;;10.07;5.38;;;22.10;99.90;;;;;;5038271;28;20343;-62
2022/08/04 01:51:57;;;;;;;12.38;5.43;;;22.10;99.90;;;;;;5034331;28;20037;-62
2022/08/04 01:54:24;;;;;;;10.52;5.65;;;22.10;99.90;;;;;;5053636;28;20036;-62
2022/08/04 01:56:50;;;;;;;12.32;5.75;;;22.00;99.90;;;;;;5030285;28;20371;-63
2022/08/04 01:59:19;;;;;;;10.20;5.68;;;22.00;99.90;;;;;;5035207;28;20393;-62
2022/08/04 02:01:45;;;;;;;9.32;5.90;;;22.00;99.90;;;;;;5033963;28;20043;-64
2022/08/04 02:04:19;;;;;;;10.25;5.68;;;22.00;99.90;;;;;;5050072;28;20033;-62
2022/08/04 02:06:50;;;;;;;10.35;5.32;;;22.00;99.90;;;;;;5026936;28;20042;-62
2022/08/04 02:09:16;;;;;;;11.73;6.10;;;21.90;99.90;;;;;;5037896;28;20077;-61
2022/08/04 02:12:02;;;;;;;11.90;5.60;;;21.90;99.90;;;;;;5045747;28;20088;-61
2022/08/04 02:14:39;;;;;;;14.27;5.65;;;21.80;99.90;;;;;;5030350;28;20335;-62
2022/08/04 02:17:31;;;;;;;10.90;5.72;;;21.80;99.90;;;;;;5043479;28;20061;-61
2022/08/04 02:20:29;;;;;;;10.32;5.75;;;21.70;99.90;;;;;;5027780;28;20095;-62
2022/08/04 02:22:57;;;;;;;10.80;6.30;;;21.70;99.90;;;;;;5009237;28;20134;-62
2022/08/04 02:25:25;;;;;;;9.40;6.07;;;21.60;99.90;;;;;;5053643;28;20064;-62
2022/08/04 02:28:07;;;;;;;13.40;5.82;;;21.50;99.90;;;;;;5051183;28;20103;-62
2022/08/04 02:30:56;;;;;;;10.38;5.88;;;21.50;99.90;;;;;;5024253;28;20044;-63
2022/08/04 02:33:34;;;;;;;10.35;6.00;;;21.50;99.90;;;;;;5053117;28;20491;-62
2022/08/04 02:36:03;;;;;;;16.75;6.45;;;21.50;99.90;;;;;;5053049;28;20458;-62
2022/08/04 02:38:31;;;;;;;12.43;6.72;;;21.60;99.90;;;;;;5033237;28;20042;-62
2022/08/04 02:41:00;;;;;;;13.15;6.68;;;21.50;99.90;;;;;;5053095;28;20041;-62
2022/08/04 02:43:28;;;;;;;11.93;6.47;;;21.50;99.90;;;;;;5052911;28;20365;-62
2022/08/04 02:45:58;;;;;;;11.45;6.50;;;21.40;99.90;;;;;;5038997;28;20045;-63
2022/08/04 02:48:27;;;;;;;12.27;6.72;;;21.50;99.90;;;;;;5021947;28;20034;-62
2022/08/04 02:50:54;;;;;;;13.98;6.22;;;21.50;99.90;;;;;;5037777;28;20080;-62
2022/08/04 02:53:25;;;;;;;11.88;6.50;;;21.40;99.90;;;;;;5053009;28;20091;-63
2022/08/04 02:55:53;;;;;;;12.57;6.55;;;21.40;99.90;;;;;;5049248;28;20029;-62
2022/08/04 02:58:19;;;;;;;16.58;8.13;;;21.40;99.90;;;;;;5031685;28;20534;-62
2022/08/04 03:00:47;;;;;;;10.88;6.38;;;21.50;99.90;;;;;;5033078;28;20053;-62
2022/08/04 03:03:32;;;;;;;12.63;6.45;;;21.40;99.90;;;;;;5040997;28;20666;-62
2022/08/04 03:06:10;;;;;;;8.10;5.50;;;21.40;99.90;;;;;;5034586;28;20085;-62
2022/08/04 03:09:00;;;;;;;10.88;6.35;;;21.40;99.90;;;;;;5034958;28;20067;-62
2022/08/04 03:11:41;;;;;;;17.17;6.70;;;21.40;99.90;;;;;;5007620;28;20133;-62
2022/08/04 03:14:27;;;;;;;12.15;6.35;;;21.40;99.90;;;;;;5052620;28;20504;-62
2022/08/04 03:17:20;;;;;;;13.55;6.60;;;21.40;99.90;;;;;;5043309;28;20158;-62
2022/08/04 03:20:17;;;;;;;11.13;6.30;;;21.30;99.90;;;;;;5037871;28;20094;-63
2022/08/04 03:23:20;;;;;;;12.00;6.70;;;21.30;99.90;;;;;;5051632;28;20059;-62
2022/08/04 03:25:51;;;;;;;9.05;5.95;;;21.30;99.90;;;;;;5020562;28;20457;-62
2022/08/04 03:28:36;;;;;;;9.85;6.20;;;21.30;99.90;;;;;;5031813;28;20466;-62
2022/08/04 03:31:16;;;;;;;12.82;6.82;;;21.20;99.90;;;;;;5043219;28;20041;-62
2022/08/04 03:33:54;;;;;;;10.20;6.30;;;21.20;99.90;;;;;;5046477;28;20045;-62
2022/08/04 03:36:23;;;;;;;12.55;6.50;;;21.20;99.90;;;;;;5032390;28;20100;-62
2022/08/04 03:39:35;;;;;;;13.23;6.55;;;21.20;99.90;;;;;;5026623;28;20029;-62
2022/08/04 03:42:35;;;;;;;14.05;7.20;;;21.20;99.90;;;;;;5047442;28;20043;-62
2022/08/04 03:45:39;;;;;;;12.80;6.80;;;21.20;99.90;;;;;;5052101;28;20052;-62
2022/08/04 03:48:14;;;;;;;;;;;21.20;99.90;;;;;;5041352;28;20134;-62
2022/08/04 03:54:03;;;;;;;9.80;6.05;;;21.10;99.90;;;;;;5052080;28;20123;-62
2022/08/04 03:57:36;;;;;;;12.10;6.60;;;21.10;99.90;;;;;;5051650;28;20067;-63
2022/08/04 04:00:04;;;;;;;12.35;6.60;;;21.10;99.90;;;;;;4931176;28;20059;-62
2022/08/04 04:02:36;;;;;;;14.57;6.90;;;21.10;99.90;;;;;;5051686;28;20048;-62
2022/08/04 04:05:35;;;;;;;11.55;6.05;;;21.10;99.90;;;;;;5051648;28;20075;-62
2022/08/04 04:08:06;;;;;;;12.07;6.45;;;21.00;99.90;;;;;;5044804;28;20049;-62
2022/08/04 04:10:40;;;;;;;12.45;6.60;;;21.10;99.90;;;;;;5044600;28;20080;-62
2022/08/04 04:13:21;;;;;;;15.82;7.20;;;21.10;99.90;;;;;;5051724;28;20098;-60
2022/08/04 04:16:16;;;;;;;10.88;6.88;;;21.10;99.90;;;;;;5020256;28;20076;-63
2022/08/04 04:19:06;;;;;;;11.15;6.25;;;21.10;99.90;;;;;;5013857;28;20431;-60
2022/08/04 04:21:49;;;;;;;15.23;6.72;;;21.10;99.90;;;;;;5050798;28;20047;-60
2022/08/04 04:24:33;;;;;;;10.57;6.50;;;21.10;99.90;;;;;;5051765;28;20044;-60
2022/08/04 04:27:08;;;;;;;11.45;6.88;;;21.10;99.90;;;;;;5033854;28;20502;-64
2022/08/04 04:29:46;;;;;;;12.38;6.63;;;21.10;99.90;;;;;;5030351;28;20049;-63
2022/08/04 04:32:40;;;;;;;12.80;7.00;;;21.10;99.90;;;;;;5036638;28;20114;-62
2022/08/04 04:35:19;;;;;;;12.05;6.75;;;21.20;99.90;;;;;;5050787;28;20033;-63
2022/08/04 04:37:45;;;;;;;11.38;6.85;;;21.20;99.90;;;;;;5031212;28;20041;-63
2022/08/04 04:40:51;;;;;;;11.93;6.72;;;21.20;99.90;;;;;;5044879;28;20179;-62
2022/08/04 04:43:47;;;;;;;15.75;7.00;;;21.30;99.90;;;;;;5051761;28;20045;-63
2022/08/04 04:46:22;;;;;;;10.25;6.43;;;21.40;99.90;;;;;;5014459;28;20548;-63
2022/08/04 04:48:57;;;;;;;13.13;7.10;;;21.40;99.90;;;;;;5030924;28;20073;-63
2022/08/04 04:51:32;;;;;;;12.02;6.60;;;21.60;99.90;;;;;;5033956;28;20048;-63
2022/08/04 04:54:18;;;;;;;10.75;7.00;;;21.70;99.90;;;;;;5052340;28;20080;-63
2022/08/04 04:57:08;;;;;;;8.90;6.45;;;21.80;99.90;;;;;;5038647;28;20033;-63
2022/08/04 04:59:38;;;;;;;13.20;7.38;;;21.90;99.90;;;;;;5019607;28;20041;-63
2022/08/04 05:02:40;;;;;;;12.43;7.25;;;22.00;99.90;;;;;;5016727;28;20117;-63
2022/08/04 05:05:38;;;;;;;13.00;8.05;;;22.10;99.90;;;;;;5015782;28;20034;-63
2022/08/04 05:08:28;;;;;;;14.77;7.45;;;22.20;99.90;;;;;;5022369;28;20103;-63
2022/08/04 05:11:35;;;;;;;11.43;6.68;;;22.50;99.90;;;;;;5027384;28;20043;-63
2022/08/04 05:14:07;;;;;;;11.82;6.90;;;23.00;99.90;;;;;;4958320;28;20420;-62
2022/08/04 05:16:42;;;;;;;13.10;7.30;;;23.70;99.90;;;;;;4957603;28;20163;-63
2022/08/04 05:19:26;;;;;;;14.32;7.10;;;23.90;99.90;;;;;;5000648;28;20065;-63
2022/08/04 05:22:01;;;;;;;12.23;7.55;;;24.10;99.90;;;;;;5018902;28;20045;-63
2022/08/04 05:24:29;;;;;;;10.05;6.65;;;24.40;99.90;;;;;;5025588;28;20037;-63
2022/08/04 05:27:02;;;;;;;13.98;7.25;;;24.70;99.90;;;;;;5034028;28;20049;-62
2022/08/04 05:29:36;;;;;;;13.87;7.40;;;24.80;99.90;;;;;;5020912;28;20038;-63
2022/08/04 05:32:10;;;;;;;11.82;6.70;;;25.10;99.90;;;;;;5018009;28;20041;-63
2022/08/04 05:34:43;;;;;;;11.27;6.70;;;25.40;99.90;;;;;;5024759;28;20041;-63
2022/08/04 05:37:15;;;;;;;11.13;6.68;;;25.50;99.90;;;;;;5033416;28;20421;-63
2022/08/04 05:40:04;;;;;;;13.45;6.47;;;25.50;99.90;;;;;;5029849;28;20072;-63
2022/08/04 05:42:31;;;;;;;10.88;7.00;;;25.40;99.90;;;;;;5034027;28;20410;-62
2022/08/04 05:44:59;;;;;;;11.55;7.18;;;25.30;99.90;;;;;;5034236;28;20108;-62
2022/08/04 05:47:26;;;;;;;12.25;6.85;;;25.40;99.90;;;;;;5033166;28;20526;-62
2022/08/04 05:49:54;;;;;;;10.85;6.22;;;25.50;99.90;;;;;;5020332;28;20097;-62
2022/08/04 05:52:21;;;;;;;11.05;6.90;;;26.00;99.90;;;;;;5029692;28;20041;-63
2022/08/04 05:54:48;;;;;;;9.35;6.10;;;26.50;99.90;;;;;;5033091;28;20045;-62
2022/08/04 05:57:15;;;;;;;10.45;6.05;;;27.20;99.90;;;;;;5033260;28;20049;-63
2022/08/04 05:59:45;;;;;;;11.65;6.65;;;27.70;99.90;;;;;;5034870;28;20108;-63
2022/08/04 06:02:14;;;;;;;11.68;6.20;;;28.10;99.90;;;;;;5015849;28;20042;-64
2022/08/04 06:04:42;;;;;;;10.65;6.10;;;28.30;99.90;;;;;;5019104;28;20053;-66
2022/08/04 06:07:09;;;;;;;10.48;6.07;;;28.40;99.90;;;;;;5012900;28;20113;-63
2022/08/04 06:09:36;;;;;;;8.88;5.55;;;28.60;99.90;;;;;;4997710;28;20038;-65
2022/08/04 06:12:07;;;;;;;11.90;5.85;;;28.80;99.90;;;;;;5013263;28;20060;-64
2022/08/04 06:14:55;;;;;;;9.63;5.78;;;28.90;99.90;;;;;;5032286;28;20370;-62
2022/08/04 06:17:31;;;;;;;9.73;5.72;;;28.90;99.90;;;;;;5032416;28;20064;-62
2022/08/04 06:19:59;;;;;;;8.38;4.93;;;29.00;99.90;;;;;;5032930;28;20029;-62
2022/08/04 06:22:27;;;;;;;12.38;5.60;;;29.10;99.90;;;;;;5033578;28;20108;-63
2022/08/04 06:24:55;;;;;;;9.85;6.20;;;29.30;99.90;;;;;;5047538;28;20446;-63
2022/08/04 06:27:23;;;;;;;10.73;5.20;;;29.40;99.90;;;;;;5053708;28;20068;-62
2022/08/04 06:29:49;;;;;;;8.68;5.03;;;29.60;99.90;;;;;;5050426;28;20033;-61
2022/08/04 06:32:26;;;;;;;7.70;4.57;;;29.70;99.90;;;;;;5053495;28;20358;-62
2022/08/04 06:34:58;;;;;;;9.80;4.82;;;30.10;99.90;;;;;;5052914;28;20107;-61
2022/08/04 06:37:26;;;;;;;8.13;4.88;;;30.20;99.90;;;;;;5052582;28;20092;-62
2022/08/04 06:39:52;;;;;;;8.68;4.45;;;30.40;99.90;;;;;;5048256;28;20033;-62
2022/08/04 06:42:21;;;;;;;9.98;4.43;;;30.60;99.90;;;;;;5052894;28;20028;-61
2022/08/04 06:44:49;;;;;;;8.18;3.85;;;30.80;99.90;;;;;;5022469;28;20116;-62
2022/08/04 06:47:20;;;;;;;8.35;4.32;;;30.80;99.80;;;;;;5031486;28;20053;-61
2022/08/04 06:49:52;;;;;;;7.13;3.80;;;31.00;99.70;;;;;;5028180;28;20033;-62
2022/08/04 06:52:19;;;;;;;10.35;3.95;;;31.10;99.40;;;;;;5032325;28;20119;-62
2022/08/04 06:54:50;;;;;;;9.20;4.50;;;31.20;99.30;;;;;;5037944;28;20112;-61
2022/08/04 06:57:22;;;;;;;11.07;4.15;;;31.10;99.40;;;;;;5034336;28;20477;-62
2022/08/04 06:59:57;;;;;;;9.23;3.80;;;30.80;99.60;;;;;;5026737;28;20042;-61
2022/08/04 07:02:26;;;;;;;7.88;3.90;;;30.80;99.70;;;;;;5028832;28;20529;-62
2022/08/04 07:04:52;;;;;;;9.63;4.00;;;30.80;99.80;;;;;;5032546;28;20037;-61
2022/08/04 07:07:18;;;;;;;10.27;4.45;;;30.60;99.80;;;;;;5031958;28;20462;-61
2022/08/04 07:09:45;;;;;;;8.43;3.88;;;30.40;99.90;;;;;;5031577;28;20060;-62
2022/08/04 07:12:11;;;;;;;11.35;3.75;;;30.30;99.90;;;;;;5032758;28;20099;-61
2022/08/04 07:14:39;;;;;;;8.45;4.03;;;30.30;99.90;;;;;;5031921;28;20041;-61
2022/08/04 07:17:08;;;;;;;7.70;4.30;;;30.40;99.90;;;;;;5031802;28;20061;-61
2022/08/04 07:19:37;;;;;;;7.05;3.85;;;30.40;99.70;;;;;;5023702;28;20034;-61
2022/08/04 07:22:05;;;;;;;9.50;4.35;;;29.90;99.90;;;;;;5015014;28;20462;-61
2022/08/04 07:24:33;;;;;;;7.82;3.55;;;29.80;99.90;;;;;;5043738;28;20041;-60
2022/08/04 07:26:59;;;;;;;9.15;5.00;;;29.70;99.90;;;;;;5052005;28;20049;-61
2022/08/04 07:29:25;;;;;;;9.05;4.13;;;29.70;99.90;;;;;;5039789;28;20037;-61
2022/08/04 07:31:53;;;;;;;11.75;4.35;;;29.50;99.90;;;;;;5034342;28;20182;-61
2022/08/04 07:34:19;;;;;;;12.38;4.40;;;29.30;99.90;;;;;;5051832;28;20045;-61
2022/08/04 07:36:45;;;;;;;7.60;4.22;;;29.20;99.90;;;;;;5051861;28;20087;-61
2022/08/04 07:39:12;;;;;;;8.70;4.15;;;29.20;99.90;;;;;;5047904;28;20048;-61
2022/08/04 07:41:40;;;;;;;9.30;4.43;;;29.20;99.90;;;;;;5052304;28;20051;-61
2022/08/04 07:44:07;;;;;;;10.02;4.50;;;29.10;99.90;;;;;;5051741;28;20040;-61
2022/08/04 07:46:33;;;;;;;11.70;4.70;;;29.10;99.90;;;;;;5051994;28;20116;-60
2022/08/04 07:49:00;;;;;;;9.85;4.70;;;29.10;99.90;;;;;;5029432;28;20033;-61
2022/08/04 07:51:27;;;;;;;12.10;4.70;;;28.90;99.90;;;;;;5048931;28;20033;-61
2022/08/04 07:53:54;;;;;;;10.65;5.05;;;29.00;99.90;;;;;;5027062;28;20505;-61
2022/08/04 07:56:20;;;;;;;12.82;5.50;;;28.90;99.90;;;;;;5032216;28;20117;-61
2022/08/04 07:58:46;;;;;;;12.32;4.93;;;28.80;99.90;;;;;;5031500;28;20597;-61
2022/08/04 08:01:13;;;;;;;11.43;5.15;;;28.60;99.90;;;;;;5031751;28;20034;-61
2022/08/04 08:03:41;;;;;;;12.40;5.35;;;28.40;99.90;;;;;;5019882;28;20072;-61
2022/08/04 08:06:08;;;;;;;11.95;5.47;;;28.40;99.90;;;;;;5019314;28;20547;-61
2022/08/04 08:08:38;;;;;;;8.93;5.28;;;28.30;99.90;;;;;;5029438;28;20045;-61
2022/08/04 08:11:04;;;;;;;8.60;5.22;;;28.30;99.90;;;;;;5034811;28;20152;-61
2022/08/04 08:13:30;;;;;;;10.90;5.78;;;28.30;99.90;;;;;;5031972;28;20112;-61
2022/08/04 08:15:57;;;;;;;10.43;5.68;;;28.20;99.90;;;;;;5035822;28;20048;-61
2022/08/04 08:18:23;;;;;;;11.93;5.43;;;28.30;99.90;;;;;;5018465;28;20116;-61
2022/08/04 08:20:51;;;;;;;11.40;5.18;;;28.40;99.90;;;;;;5031748;28;20049;-61
2022/08/04 08:23:17;;;;;;;10.43;5.00;;;28.40;99.90;;;;;;5033018;28;20113;-61
2022/08/04 08:25:43;;;;;;;14.80;5.25;;;28.30;99.90;;;;;;5051360;28;20504;-61
2022/08/04 08:28:09;;;;;;;10.68;4.80;;;28.20;99.90;;;;;;5019377;28;20108;-60
2022/08/04 08:30:36;;;;;;;12.85;5.07;;;28.30;99.90;;;;;;5035138;28;20366;-61
2022/08/04 08:33:05;;;;;;;8.20;5.13;;;28.30;99.90;;;;;;5035648;28;20056;-61
2022/08/04 08:35:39;;;;;;;11.23;4.65;;;28.20;99.90;;;;;;5035245;28;20310;-61
2022/08/04 08:38:06;;;;;;;10.07;5.00;;;28.10;99.90;;;;;;5035188;28;20496;-61
2022/08/04 08:40:49;;;;;;;9.45;5.13;;;28.00;99.90;;;;;;5033686;28;20486;-61
2022/08/04 08:43:35;;;;;;;10.97;5.63;;;28.00;99.90;;;;;;5035723;28;20033;-60
2022/08/04 08:46:18;;;;;;;11.90;5.70;;;28.00;99.90;;;;;;5035205;28;20276;-61
2022/08/04 08:49:07;;;;;;;11.32;5.80;;;27.90;99.90;;;;;;5031898;28;20033;-61
2022/08/04 08:51:56;;;;;;;9.35;5.72;;;28.00;99.90;;;;;;5018106;28;20041;-61
2022/08/04 08:54:43;;;;;;;9.88;5.00;;;28.10;99.90;;;;;;5034952;28;20025;-61
2022/08/04 08:57:46;;;;;;;12.23;5.65;;;28.30;99.90;;;;;;5035200;28;20081;-61
2022/08/04 09:00:41;;;;;;;12.88;5.70;;;28.30;99.90;;;;;;5030275;28;20406;-61
2022/08/04 09:03:33;;;;;;;10.68;5.20;;;28.30;99.90;;;;;;5023241;28;20045;-61
2022/08/04 09:06:37;;;;;;;10.50;5.07;;;28.10;99.90;;;;;;5029573;28;20037;-61
2022/08/04 09:09:23;;;;;;;9.10;5.00;;;28.10;99.90;;;;;;5034021;28;20045;-60
2022/08/04 09:12:03;;;;;;;9.25;4.47;;;28.00;99.90;;;;;;5034339;28;20041;-60
2022/08/04 09:14:40;;;;;;;10.20;4.55;;;27.90;99.90;;;;;;5031968;28;20116;-61
2022/08/04 09:17:17;;;;;;;10.75;4.45;;;27.90;99.90;;;;;;5014667;28;20073;-61
2022/08/04 09:20:00;;;;;;;7.43;3.60;;;27.80;99.90;;;;;;5009864;28;20422;-61
2022/08/04 09:22:58;;;;;;;8.43;3.80;;;27.80;99.90;;;;;;5014409;28;20054;-61
2022/08/04 09:25:30;;;;;;;8.43;3.58;;;27.70;99.90;;;;;;5038500;28;20052;-61
2022/08/04 09:28:06;;;;;;;14.30;4.40;;;27.90;99.90;;;;;;5042573;28;20443;-61
2022/08/04 09:30:42;;;;;;;7.45;3.08;;;28.00;99.90;;;;;;5034077;28;20047;-61
2022/08/04 09:33:32;;;;;;;7.35;3.00;;;28.10;99.90;;;;;;5027021;28;20038;-61
2022/08/04 09:36:06;;;;;;;6.45;2.33;;;28.00;99.90;;;;;;5029984;28;20041;-61
2022/08/04 09:38:48;;;;;;;6.15;2.10;;;27.90;99.90;;;;;;5037327;28;20124;-61
2022/08/04 09:41:46;;;;;;;8.93;2.30;;;27.90;99.90;;;;;;5033023;28;20063;-61
2022/08/04 09:44:26;;;;;;;6.13;2.20;;;28.00;99.90;;;;;;5033666;28;20419;-61
2022/08/04 09:47:37;;;;;;;7.32;2.38;;;27.90;99.90;;;;;;5027484;28;20458;-61
2022/08/04 09:50:25;;;;;;;6.70;2.50;;;28.00;99.90;;;;;;4988295;28;20554;-62
2022/08/04 09:53:08;;;;;;;9.05;2.53;;;28.00;99.90;;;;;;5029119;28;20148;-62
2022/08/04 09:55:46;;;;;;;;;;;28.00;99.90;;;;;;5034137;28;20041;-61
2022/08/04 09:58:15;;;;;;;9.02;2.42;;;27.90;99.90;;;;;;5033134;28;20330;-62
2022/08/04 10:00:48;;;;;;;8.32;2.40;;;27.90;99.90;;;;;;5033638;28;20416;-61
2022/08/04 10:03:15;;;;;;;9.93;2.40;;;27.80;99.90;;;;;;5024365;28;20108;-62
2022/08/04 10:06:30;;;;;;;7.50;2.58;;;27.90;99.90;;;;;;5033498;28;20121;-62
2022/08/04 10:09:10;;;;;;;9.52;3.05;;;28.00;99.90;;;;;;4934288;29;20126;-61
2022/08/04 10:11:45;;;;;;;11.63;3.38;;;27.90;99.90;;;;;;5019934;28;20411;-61
2022/08/04 10:14:46;;;;;;;11.00;2.90;;;28.00;99.90;;;;;;5033353;28;20087;-61
2022/08/04 10:17:26;;;;;;;7.07;2.65;;;28.30;99.90;;;;;;5033182;28;20415;-62
2022/08/04 10:20:12;;;;;;;9.65;3.10;;;28.60;99.90;;;;;;5033415;28;20037;-62
2022/08/04 10:22:55;;;;;;;10.55;3.20;;;28.60;99.90;;;;;;5027166;28;20041;-61
2022/08/04 10:25:48;;;;;;;10.40;2.83;;;28.70;99.90;;;;;;5046841;28;20045;-62
2022/08/04 10:28:23;;;;;;;9.98;3.22;;;29.00;99.90;;;;;;5030264;28;20052;-62
2022/08/04 10:30:56;;;;;;;4.65;2.15;;;28.90;99.90;;;;;;5028232;28;20068;-62
2022/08/04 10:33:33;;;;;;;6.95;2.58;;;28.80;99.90;;;;;;5052913;28;20079;-62
2022/08/04 10:36:10;;;;;;;7.13;2.53;;;28.60;99.90;;;;;;5052932;28;20098;-62
2022/08/04 10:38:39;;;;;;;4.32;2.30;;;28.40;99.90;;;;;;5050261;28;20092;-62
2022/08/04 10:41:37;;;;;;;7.68;2.90;;;28.20;99.90;;;;;;5052627;28;20041;-62
2022/08/04 10:44:23;;;;;;;6.45;2.65;;;28.10;99.90;;;;;;5047246;28;20041;-62
2022/08/04 10:46:54;;;;;;;6.22;2.25;;;28.00;99.90;;;;;;5053069;28;20049;-62
2022/08/04 10:49:28;;;;;;;9.43;2.50;;;28.20;99.90;;;;;;5048640;28;20095;-62
2022/08/04 10:52:23;;;;;;;5.97;2.30;;;28.30;99.90;;;;;;5046855;28;20060;-62
2022/08/04 10:54:57;;;;;;;5.00;2.42;;;28.30;99.90;;;;;;5031240;28;20036;-62
2022/08/04 10:57:50;;;;;;;6.55;1.88;;;28.30;99.90;;;;;;5043002;28;20103;-63
2022/08/04 11:00:40;;;;;;;3.95;1.88;;;28.40;99.90;;;;;;5042546;28;20040;-62
2022/08/04 11:03:17;;;;;;;3.85;1.60;;;28.60;99.90;;;;;;5027449;28;20041;-61
2022/08/04 11:05:56;;;;;;;5.10;2.10;;;28.60;99.90;;;;;;5043477;28;20045;-61
2022/08/04 11:08:41;;;;;;;3.60;2.25;;;28.70;99.90;;;;;;5050592;28;20052;-60
2022/08/04 11:11:33;;;;;;;4.85;2.15;;;28.60;99.90;;;;;;5049818;28;20037;-62
2022/08/04 11:14:13;;;;;;;3.95;2.03;;;28.30;99.90;;;;;;5036765;28;20045;-61
2022/08/04 11:17:14;;;;;;;5.88;1.50;;;28.30;99.90;;;;;;5009195;28;20463;-61
2022/08/04 11:20:07;;;;;;;4.10;1.50;;;28.20;99.90;;;;;;5011658;28;20052;-61
2022/08/04 11:22:39;;;;;;;2.75;1.77;;;28.10;99.90;;;;;;5034858;28;20116;-61
2022/08/04 11:25:27;;;;;;;3.67;1.50;;;28.20;99.90;;;;;;5016543;28;20045;-61
2022/08/04 11:28:11;;;;;;;4.15;1.50;;;27.90;99.90;;;;;;5052582;28;20136;-61
2022/08/04 11:30:46;;;;;;;6.65;2.13;;;27.80;99.90;;;;;;5021172;28;20069;-61
2022/08/04 11:33:26;;;;;;;6.50;1.70;;;27.60;99.90;;;;;;5021826;28;20072;-62
2022/08/04 11:36:15;;;;;;;2.25;1.50;;;27.40;99.90;;;;;;5018300;28;20088;-61
2022/08/04 11:38:58;;;;;;;2.42;1.42;;;27.30;99.90;;;;;;5031278;28;20063;-61
2022/08/04 11:41:40;;;;;;;3.53;1.50;;;27.20;99.90;;;;;;5018047;28;20036;-61
2022/08/04 11:44:10;;;;;;;3.33;1.60;;;27.30;99.90;;;;;;5015784;28;20458;-60
2022/08/04 11:46:43;;;;;;;3.20;1.25;;;27.30;99.90;;;;;;5022780;28;20072;-60
2022/08/04 11:49:40;;;;;;;2.33;1.30;;;27.40;99.90;;;;;;5036682;28;20120;-61
2022/08/04 11:52:08;;;;;;;4.25;1.60;;;27.10;99.90;;;;;;5026833;28;20064;-61
2022/08/04 11:54:35;;;;;;;3.95;1.20;;;27.10;99.90;;;;;;5031604;28;20048;-61
2022/08/04 11:57:01;;;;;;;6.20;2.15;;;27.00;99.90;;;;;;5032074;28;20045;-61
2022/08/04 11:59:29;;;;;;;8.43;1.88;;;26.70;99.90;;;;;;5031209;28;20049;-61
2022/08/04 12:02:32;;;;;;;3.80;1.60;;;26.70;99.90;;;;;;5040457;28;20041;-62
2022/08/04 12:05:00;;;;;;;3.40;1.45;;;26.60;99.90;;;;;;5030861;28;20077;-62
2022/08/04 12:07:45;;;;;;;4.45;1.70;;;26.50;99.90;;;;;;5019020;28;20045;-62
2022/08/04 12:10:45;;;;;;;4.78;1.20;;;26.40;99.90;;;;;;5015585;28;20045;-62
2022/08/04 12:13:49;;;;;;;8.30;1.90;;;26.50;99.90;;;;;;5031774;28;20088;-61
2022/08/04 12:16:34;;;;;;;4.53;1.60;;;26.40;99.90;;;;;;5033997;28;20058;-61
2022/08/04 12:19:05;;;;;;;4.05;1.60;;;26.60;99.90;;;;;;5023128;28;20099;-61
2022/08/04 12:21:38;;;;;;;3.17;1.77;;;26.60;99.90;;;;;;5014129;28;20033;-61
2022/08/04 12:24:16;;;;;;;4.10;1.42;;;26.80;99.90;;;;;;5013396;28;20037;-61
2022/08/04 12:26:48;;;;;;;2.72;1.33;;;26.90;99.90;;;;;;5051867;28;20141;-61
2022/08/04 12:29:17;;;;;;;4.57;1.40;;;27.20;99.90;;;;;;5009949;28;20118;-61
2022/08/04 12:31:51;;;;;;;5.38;1.40;;;27.40;99.80;;;;;;5046509;28;20045;-62
2022/08/04 12:34:30;;;;;;;2.40;1.50;;;27.50;99.50;;;;;;5051392;28;20076;-61
2022/08/04 12:37:14;;;;;;;2.22;1.30;;;27.60;99.00;;;;;;5033562;28;20040;-61
2022/08/04 12:39:43;;;;;;;3.80;1.50;;;27.70;98.60;;;;;;5022159;28;20045;-61
2022/08/04 12:42:21;;;;;;;1.50;1.10;;;27.70;98.90;;;;;;5048202;28;20037;-61
2022/08/04 12:44:52;;;;;;;3.05;1.45;;;27.80;98.80;;;;;;5051396;28;20033;-62
2022/08/04 12:47:26;;;;;;;3.13;1.40;;;27.70;98.40;;;;;;5051765;28;20056;-62
2022/08/04 12:49:55;;;;;;;1.98;1.20;;;27.80;98.50;;;;;;5048090;28;20071;-61
2022/08/04 12:52:20;;;;;;;2.33;1.40;;;27.80;98.50;;;;;;5026408;28;20143;-62
2022/08/04 12:54:52;;;;;;;3.38;1.30;;;28.00;98.70;;;;;;5033792;28;20120;-61
2022/08/04 12:57:20;;;;;;;2.00;1.30;;;28.00;98.00;;;;;;5027336;28;20041;-62
2022/08/04 12:59:46;;;;;;;1.73;1.30;;;28.00;98.00;;;;;;4997451;28;20053;-62
2022/08/04 13:02:28;;;;;;;2.60;1.50;;;28.00;97.90;;;;;;5012009;28;20109;-62
2022/08/04 13:04:58;;;;;;;2.95;1.52;;;28.10;97.60;;;;;;5003043;28;20478;-61
2022/08/04 13:07:27;;;;;;;4.32;1.30;;;28.30;97.70;;;;;;5013164;28;20351;-62
2022/08/04 13:09:53;;;;;;;3.47;1.42;;;28.00;97.50;;;;;;5030444;28;20173;-62
2022/08/04 13:12:23;;;;;;;3.78;1.48;;;28.00;97.70;;;;;;5031300;28;20113;-61
2022/08/04 13:14:52;;;;;;;2.45;1.58;;;27.90;97.60;;;;;;5036972;28;20476;-61
2022/08/04 13:17:18;;;;;;;3.55;1.65;;;27.90;97.60;;;;;;5037584;28;20064;-61
2022/08/04 13:19:49;;;;;;;3.35;1.63;;;28.00;97.70;;;;;;5035639;28;20033;-61
2022/08/04 13:22:25;;;;;;;3.63;1.60;;;28.20;97.60;;;;;;5034806;28;20045;-62
2022/08/04 13:24:51;;;;;;;4.15;1.20;;;28.30;97.50;;;;;;5036035;28;20099;-61
2022/08/04 13:27:19;;;;;;;3.53;1.60;;;28.10;97.60;;;;;;5054631;28;20116;-61
2022/08/04 13:29:47;;;;;;;6.00;1.85;;;28.00;97.40;;;;;;5042360;28;20044;-62
2022/08/04 13:32:20;;;;;;;4.63;1.50;;;28.20;97.50;;;;;;5048615;28;20041;-62
2022/08/04 13:34:49;;;;;;;2.22;1.40;;;28.30;97.30;;;;;;5046435;28;20052;-62